EZY21ER EBCI-EGKK
Flight info
| Callsign | EZY21ER |
|---|---|
| Flight time | 0h 48m |
| Altitude | 24000 |
| Route | CIV UY50 LUMEN L610 TEBRA |
| Aircraft | A21N/M-SDE2E3FGHIRWXY/LB1 |
Departure
| Time | 2026-05-06 17:34 |
|---|---|
| Airport | Brussels South Charleroi Airport (EBCI) |
Arrival
| Time | 2026-05-06 18:22 |
|---|---|
| Airport | London Gatwick Airport (EGKK) |
| Time | Latitude | Longitude | Altitude | Speed | Heading |
|---|---|---|---|---|---|
| 2026-05-06 17:02 | 50.46753 | 4.46692 | 621 ft | 0 kts | 335° |
| 2026-05-06 17:21 | 50.46750 | 4.46694 | 616 ft | 2 kts | 335° |
| 2026-05-06 17:22 | 50.46734 | 4.46703 | 630 ft | 2 kts | 345° |
| 2026-05-06 17:22 | 50.46718 | 4.46707 | 627 ft | 2 kts | 0° |
| 2026-05-06 17:22 | 50.46702 | 4.46702 | 630 ft | 2 kts | 30° |
| 2026-05-06 17:22 | 50.46690 | 4.46684 | 616 ft | 2 kts | 58° |
| 2026-05-06 17:23 | 50.46686 | 4.46671 | 630 ft | 1 kts | 64° |
| 2026-05-06 17:23 | 50.46685 | 4.46670 | 630 ft | 0 kts | 64° |
| 2026-05-06 17:26 | 50.46686 | 4.46671 | 630 ft | 0 kts | 64° |
| 2026-05-06 17:26 | 50.46689 | 4.46683 | 616 ft | 2 kts | 64° |
| 2026-05-06 17:26 | 50.46701 | 4.46720 | 625 ft | 5 kts | 64° |
| 2026-05-06 17:27 | 50.46722 | 4.46793 | 618 ft | 9 kts | 66° |
| 2026-05-06 17:27 | 50.46751 | 4.46896 | 623 ft | 11 kts | 65° |
| 2026-05-06 17:27 | 50.46783 | 4.47002 | 622 ft | 11 kts | 65° |
| 2026-05-06 17:27 | 50.46814 | 4.47110 | 620 ft | 11 kts | 65° |
| 2026-05-06 17:28 | 50.46844 | 4.47216 | 622 ft | 11 kts | 65° |
| 2026-05-06 17:28 | 50.46876 | 4.47324 | 623 ft | 11 kts | 65° |
| 2026-05-06 17:28 | 50.46907 | 4.47433 | 622 ft | 11 kts | 65° |
| 2026-05-06 17:28 | 50.46934 | 4.47523 | 623 ft | 8 kts | 65° |
| 2026-05-06 17:29 | 50.46928 | 4.47598 | 630 ft | 7 kts | 134° |
| 2026-05-06 17:29 | 50.46887 | 4.47632 | 620 ft | 7 kts | 154° |
| 2026-05-06 17:29 | 50.46848 | 4.47661 | 623 ft | 6 kts | 155° |
| 2026-05-06 17:29 | 50.46829 | 4.47674 | 618 ft | 0 kts | 155° |
| 2026-05-06 17:31 | 50.46821 | 4.47680 | 618 ft | 0 kts | 155° |
| 2026-05-06 17:31 | 50.46819 | 4.47682 | 617 ft | 0 kts | 155° |
| 2026-05-06 17:31 | 50.46818 | 4.47682 | 617 ft | 0 kts | 155° |
| 2026-05-06 17:32 | 50.46799 | 4.47696 | 616 ft | 6 kts | 155° |
| 2026-05-06 17:32 | 50.46752 | 4.47730 | 625 ft | 7 kts | 156° |
| 2026-05-06 17:32 | 50.46705 | 4.47731 | 624 ft | 7 kts | 203° |
| 2026-05-06 17:32 | 50.46682 | 4.47681 | 616 ft | 0 kts | 245° |
| 2026-05-06 17:33 | 50.46682 | 4.47680 | 616 ft | 0 kts | 245° |
| 2026-05-06 17:33 | 50.46681 | 4.47677 | 616 ft | 0 kts | 245° |
| 2026-05-06 17:33 | 50.46655 | 4.47588 | 629 ft | 34 kts | 245° |
| 2026-05-06 17:33 | 50.46457 | 4.46897 | 623 ft | 110 kts | 246° |
| 2026-05-06 17:34 | 50.46025 | 4.45417 | 694 ft | 177 kts | 246° |
| 2026-05-06 17:34 | 50.45474 | 4.43585 | 1397 ft | 192 kts | 247° |
| 2026-05-06 17:34 | 50.44894 | 4.41612 | 2213 ft | 205 kts | 248° |
| 2026-05-06 17:34 | 50.44296 | 4.39535 | 3062 ft | 212 kts | 248° |
| 2026-05-06 17:35 | 50.43684 | 4.37358 | 3720 ft | 230 kts | 248° |
| 2026-05-06 17:35 | 50.43001 | 4.34904 | 4196 ft | 257 kts | 248° |
| 2026-05-06 17:35 | 50.42260 | 4.32288 | 5001 ft | 267 kts | 248° |
| 2026-05-06 17:36 | 50.40994 | 4.26824 | 6893 ft | 271 kts | 266° |
| 2026-05-06 17:36 | 50.41239 | 4.23919 | 7761 ft | 272 kts | 293° |
| 2026-05-06 17:36 | 50.42120 | 4.21273 | 8662 ft | 276 kts | 303° |
| 2026-05-06 17:36 | 50.43155 | 4.18727 | 9593 ft | 280 kts | 304° |
| 2026-05-06 17:37 | 50.44232 | 4.16131 | 10332 ft | 290 kts | 304° |
| 2026-05-06 17:37 | 50.45373 | 4.13359 | 10706 ft | 313 kts | 304° |
| 2026-05-06 17:37 | 50.46590 | 4.10369 | 11070 ft | 336 kts | 303° |
| 2026-05-06 17:37 | 50.47853 | 4.07239 | 11525 ft | 351 kts | 303° |
| 2026-05-06 17:38 | 50.49174 | 4.03951 | 12232 ft | 360 kts | 303° |
| 2026-05-06 17:38 | 50.50514 | 4.00600 | 13024 ft | 365 kts | 303° |
| 2026-05-06 17:38 | 50.51874 | 3.97192 | 13844 ft | 370 kts | 303° |
| 2026-05-06 17:38 | 50.53248 | 3.93748 | 14572 ft | 375 kts | 302° |
| 2026-05-06 17:39 | 50.54640 | 3.90252 | 15294 ft | 380 kts | 302° |
| 2026-05-06 17:39 | 50.56130 | 3.86796 | 16020 ft | 385 kts | 308° |
| 2026-05-06 17:39 | 50.58030 | 3.83797 | 16729 ft | 390 kts | 322° |
| 2026-05-06 17:39 | 50.60367 | 3.81578 | 17419 ft | 396 kts | 333° |
| 2026-05-06 17:40 | 50.62860 | 3.79832 | 18076 ft | 401 kts | 337° |
| 2026-05-06 17:40 | 50.65491 | 3.78271 | 18681 ft | 406 kts | 340° |
| 2026-05-06 17:40 | 50.68170 | 3.76805 | 19313 ft | 409 kts | 340° |
| 2026-05-06 17:40 | 50.70864 | 3.75357 | 19964 ft | 411 kts | 340° |
| 2026-05-06 17:41 | 50.73583 | 3.73878 | 20589 ft | 414 kts | 340° |
| 2026-05-06 17:41 | 50.76311 | 3.72361 | 21184 ft | 417 kts | 339° |
| 2026-05-06 17:41 | 50.79051 | 3.70806 | 21770 ft | 421 kts | 339° |
| 2026-05-06 17:41 | 50.81782 | 3.69235 | 22338 ft | 424 kts | 339° |
| 2026-05-06 17:42 | 50.84562 | 3.67623 | 22882 ft | 428 kts | 338° |
| 2026-05-06 17:42 | 50.87374 | 3.65985 | 23404 ft | 432 kts | 338° |
| 2026-05-06 17:42 | 50.90209 | 3.64328 | 23777 ft | 436 kts | 338° |
| 2026-05-06 17:42 | 50.93058 | 3.62607 | 23901 ft | 444 kts | 337° |
| 2026-05-06 17:43 | 50.95960 | 3.60776 | 23909 ft | 452 kts | 336° |
| 2026-05-06 17:43 | 50.98882 | 3.58891 | 23905 ft | 454 kts | 336° |
| 2026-05-06 17:43 | 51.01806 | 3.56990 | 23902 ft | 454 kts | 336° |
| 2026-05-06 17:43 | 51.04730 | 3.55088 | 23904 ft | 454 kts | 336° |
| 2026-05-06 17:44 | 51.07657 | 3.53188 | 23907 ft | 454 kts | 336° |
| 2026-05-06 17:44 | 51.10546 | 3.51314 | 23911 ft | 454 kts | 336° |
| 2026-05-06 17:44 | 51.13473 | 3.49417 | 23913 ft | 454 kts | 336° |
| 2026-05-06 17:44 | 51.16399 | 3.47522 | 23913 ft | 454 kts | 336° |
| 2026-05-06 17:45 | 51.19321 | 3.45626 | 23917 ft | 454 kts | 335° |
| 2026-05-06 17:45 | 51.22123 | 3.43325 | 23912 ft | 451 kts | 326° |
| 2026-05-06 17:45 | 51.24584 | 3.40266 | 23917 ft | 448 kts | 314° |
| 2026-05-06 17:45 | 51.26559 | 3.36451 | 23923 ft | 445 kts | 301° |
| 2026-05-06 17:46 | 51.27910 | 3.32046 | 23923 ft | 441 kts | 288° |
| 2026-05-06 17:46 | 51.28785 | 3.27365 | 23926 ft | 440 kts | 283° |
| 2026-05-06 17:46 | 51.29476 | 3.22593 | 23931 ft | 440 kts | 280° |
| 2026-05-06 17:46 | 51.30060 | 3.17874 | 23934 ft | 439 kts | 279° |
| 2026-05-06 17:47 | 51.30617 | 3.13075 | 23935 ft | 439 kts | 279° |
| 2026-05-06 17:47 | 51.31171 | 3.08279 | 23939 ft | 439 kts | 279° |
| 2026-05-06 17:47 | 51.31735 | 3.03493 | 23937 ft | 439 kts | 279° |
| 2026-05-06 17:47 | 51.32314 | 2.98695 | 23936 ft | 439 kts | 279° |
| 2026-05-06 17:48 | 51.32904 | 2.93911 | 23938 ft | 439 kts | 279° |
| 2026-05-06 17:48 | 51.33500 | 2.89127 | 23937 ft | 439 kts | 280° |
| 2026-05-06 17:48 | 51.34089 | 2.84403 | 23940 ft | 438 kts | 280° |
| 2026-05-06 17:48 | 51.34684 | 2.79628 | 23941 ft | 438 kts | 280° |
| 2026-05-06 17:49 | 51.35278 | 2.74841 | 23941 ft | 438 kts | 280° |
| 2026-05-06 17:49 | 51.35871 | 2.70058 | 23939 ft | 438 kts | 279° |
| 2026-05-06 17:49 | 51.36462 | 2.65275 | 23942 ft | 438 kts | 279° |
| 2026-05-06 17:49 | 51.37052 | 2.60481 | 23944 ft | 439 kts | 279° |
| 2026-05-06 17:50 | 51.37638 | 2.55702 | 23943 ft | 438 kts | 280° |
| 2026-05-06 17:50 | 51.38223 | 2.50918 | 23945 ft | 438 kts | 280° |
| 2026-05-06 17:50 | 51.38805 | 2.46131 | 23946 ft | 438 kts | 280° |
| 2026-05-06 17:50 | 51.39379 | 2.41398 | 23948 ft | 438 kts | 280° |
| 2026-05-06 17:51 | 51.39957 | 2.36615 | 23945 ft | 438 kts | 280° |
| 2026-05-06 17:51 | 51.40533 | 2.31823 | 23951 ft | 438 kts | 280° |
| 2026-05-06 17:51 | 51.41108 | 2.27034 | 23951 ft | 438 kts | 280° |
| 2026-05-06 17:51 | 51.41687 | 2.22248 | 23952 ft | 438 kts | 280° |
| 2026-05-06 17:52 | 51.42272 | 2.17459 | 23953 ft | 438 kts | 280° |
| 2026-05-06 17:52 | 51.42856 | 2.12679 | 23950 ft | 438 kts | 280° |
| 2026-05-06 17:52 | 51.43439 | 2.07894 | 23954 ft | 438 kts | 280° |
| 2026-05-06 17:52 | 51.44014 | 2.03162 | 23955 ft | 438 kts | 280° |
| 2026-05-06 17:53 | 51.44557 | 1.98656 | 23956 ft | 438 kts | 280° |
| 2026-05-06 17:53 | 51.45119 | 1.93930 | 23956 ft | 438 kts | 280° |
| 2026-05-06 17:53 | 51.45686 | 1.89114 | 23869 ft | 443 kts | 280° |
| 2026-05-06 17:53 | 51.46252 | 1.84256 | 23231 ft | 443 kts | 280° |
| 2026-05-06 17:54 | 51.46817 | 1.79371 | 21967 ft | 447 kts | 280° |
| 2026-05-06 17:54 | 51.47382 | 1.74472 | 20924 ft | 447 kts | 280° |
| 2026-05-06 17:54 | 51.47943 | 1.69585 | 20030 ft | 443 kts | 280° |
| 2026-05-06 17:54 | 51.48437 | 1.64741 | 19187 ft | 438 kts | 276° |
| 2026-05-06 17:55 | 51.48370 | 1.59918 | 18358 ft | 433 kts | 261° |
| 2026-05-06 17:55 | 51.47582 | 1.55264 | 17442 ft | 429 kts | 252° |
| 2026-05-06 17:55 | 51.46573 | 1.50788 | 16524 ft | 424 kts | 250° |
| 2026-05-06 17:55 | 51.45553 | 1.46449 | 15653 ft | 420 kts | 250° |
| 2026-05-06 17:56 | 51.44521 | 1.42105 | 14807 ft | 415 kts | 249° |
| 2026-05-06 17:56 | 51.43169 | 1.38079 | 14235 ft | 406 kts | 235° |
| 2026-05-06 17:56 | 51.41231 | 1.34898 | 14007 ft | 396 kts | 221° |
| 2026-05-06 17:56 | 51.39049 | 1.32194 | 13967 ft | 397 kts | 218° |
| 2026-05-06 17:57 | 51.36825 | 1.29574 | 13963 ft | 398 kts | 217° |
| 2026-05-06 17:57 | 51.34590 | 1.26956 | 13959 ft | 398 kts | 217° |
| 2026-05-06 17:57 | 51.32359 | 1.24338 | 13969 ft | 398 kts | 218° |
| 2026-05-06 17:57 | 51.30169 | 1.21767 | 13952 ft | 379 kts | 218° |
| 2026-05-06 17:58 | 51.28051 | 1.19278 | 13977 ft | 385 kts | 218° |
| 2026-05-06 17:58 | 51.25890 | 1.16735 | 13973 ft | 395 kts | 218° |
| 2026-05-06 17:58 | 51.23658 | 1.14147 | 13957 ft | 398 kts | 215° |
| 2026-05-06 17:58 | 51.21268 | 1.11908 | 13958 ft | 397 kts | 208° |
| 2026-05-06 17:59 | 51.18853 | 1.10058 | 13954 ft | 374 kts | 206° |
| 2026-05-06 17:59 | 51.16562 | 1.08362 | 13957 ft | 352 kts | 206° |
| 2026-05-06 17:59 | 51.14397 | 1.06770 | 13958 ft | 333 kts | 206° |
| 2026-05-06 17:59 | 51.12351 | 1.05275 | 13953 ft | 315 kts | 206° |
| 2026-05-06 18:00 | 51.10393 | 1.03851 | 13962 ft | 307 kts | 206° |
| 2026-05-06 18:00 | 51.08452 | 1.02441 | 13982 ft | 307 kts | 206° |
| 2026-05-06 18:00 | 51.06508 | 1.01029 | 13985 ft | 307 kts | 206° |
| 2026-05-06 18:00 | 51.04561 | 0.99618 | 13985 ft | 307 kts | 206° |
| 2026-05-06 18:01 | 51.02632 | 0.98218 | 13985 ft | 307 kts | 206° |
| 2026-05-06 18:01 | 51.00673 | 0.96796 | 13992 ft | 307 kts | 206° |
| 2026-05-06 18:01 | 50.98751 | 0.95400 | 13988 ft | 307 kts | 206° |
| 2026-05-06 18:01 | 50.96809 | 0.93992 | 13999 ft | 307 kts | 206° |
| 2026-05-06 18:02 | 50.94864 | 0.92581 | 13994 ft | 308 kts | 206° |
| 2026-05-06 18:02 | 50.92941 | 0.91094 | 13990 ft | 307 kts | 212° |
| 2026-05-06 18:02 | 50.91262 | 0.89054 | 13985 ft | 304 kts | 227° |
| 2026-05-06 18:02 | 50.90081 | 0.86352 | 13812 ft | 296 kts | 248° |
| 2026-05-06 18:03 | 50.89639 | 0.83197 | 13361 ft | 294 kts | 271° |
| 2026-05-06 18:03 | 50.89789 | 0.79974 | 12905 ft | 293 kts | 278° |
| 2026-05-06 18:03 | 50.90074 | 0.76780 | 12458 ft | 292 kts | 279° |
| 2026-05-06 18:03 | 50.90374 | 0.73609 | 12085 ft | 290 kts | 279° |
| 2026-05-06 18:04 | 50.90567 | 0.71545 | 11995 ft | 282 kts | 279° |
| 2026-05-06 18:04 | 50.90844 | 0.68549 | 11972 ft | 267 kts | 279° |
| 2026-05-06 18:04 | 50.91103 | 0.65709 | 11972 ft | 256 kts | 279° |
| 2026-05-06 18:04 | 50.91436 | 0.62025 | 11981 ft | 255 kts | 279° |
| 2026-05-06 18:05 | 50.91686 | 0.59238 | 11981 ft | 256 kts | 279° |
| 2026-05-06 18:05 | 50.91930 | 0.56479 | 11810 ft | 250 kts | 279° |
| 2026-05-06 18:05 | 50.92093 | 0.54629 | 11508 ft | 251 kts | 279° |
| 2026-05-06 18:05 | 50.92331 | 0.51922 | 11034 ft | 252 kts | 279° |
| 2026-05-06 18:06 | 50.92572 | 0.49176 | 10568 ft | 251 kts | 279° |
| 2026-05-06 18:06 | 50.92811 | 0.46440 | 10094 ft | 250 kts | 279° |
| 2026-05-06 18:06 | 50.93048 | 0.43718 | 9611 ft | 249 kts | 279° |
| 2026-05-06 18:06 | 50.93283 | 0.41006 | 9134 ft | 247 kts | 279° |
| 2026-05-06 18:07 | 50.93515 | 0.38322 | 8979 ft | 246 kts | 279° |
| 2026-05-06 18:07 | 50.93747 | 0.35630 | 8966 ft | 246 kts | 279° |
| 2026-05-06 18:07 | 50.93978 | 0.32952 | 8968 ft | 246 kts | 279° |
| 2026-05-06 18:07 | 50.94210 | 0.30250 | 8967 ft | 246 kts | 279° |
| 2026-05-06 18:08 | 50.94442 | 0.27571 | 8970 ft | 246 kts | 281° |
| 2026-05-06 18:08 | 50.94850 | 0.24986 | 8966 ft | 244 kts | 289° |
| 2026-05-06 18:08 | 50.95390 | 0.22436 | 8925 ft | 244 kts | 289° |
| 2026-05-06 18:08 | 50.95912 | 0.19867 | 8572 ft | 244 kts | 289° |
| 2026-05-06 18:09 | 50.96429 | 0.17311 | 8245 ft | 243 kts | 289° |
| 2026-05-06 18:09 | 50.96943 | 0.14775 | 7933 ft | 241 kts | 289° |
| 2026-05-06 18:09 | 50.97456 | 0.12252 | 7616 ft | 239 kts | 289° |
| 2026-05-06 18:09 | 50.97968 | 0.09750 | 7301 ft | 238 kts | 289° |
| 2026-05-06 18:10 | 50.98481 | 0.07257 | 6974 ft | 237 kts | 289° |
| 2026-05-06 18:10 | 50.98998 | 0.04771 | 6642 ft | 237 kts | 289° |
| 2026-05-06 18:10 | 50.99513 | 0.02299 | 6337 ft | 236 kts | 286° |
| 2026-05-06 18:10 | 50.99821 | -0.00253 | 6003 ft | 235 kts | 277° |
| 2026-05-06 18:11 | 50.99990 | -0.02771 | 5699 ft | 231 kts | 276° |
| 2026-05-06 18:11 | 51.00140 | -0.05298 | 5280 ft | 230 kts | 276° |
| 2026-05-06 18:11 | 51.00284 | -0.07827 | 4843 ft | 230 kts | 276° |
| 2026-05-06 18:11 | 51.00426 | -0.10359 | 4460 ft | 228 kts | 276° |
| 2026-05-06 18:12 | 51.00555 | -0.12807 | 4283 ft | 217 kts | 276° |
| 2026-05-06 18:12 | 51.00669 | -0.15119 | 4160 ft | 204 kts | 276° |
| 2026-05-06 18:12 | 51.00770 | -0.17300 | 3989 ft | 194 kts | 276° |
| 2026-05-06 18:12 | 51.00861 | -0.19407 | 3772 ft | 189 kts | 276° |
| 2026-05-06 18:13 | 51.00942 | -0.21481 | 3513 ft | 187 kts | 276° |
| 2026-05-06 18:13 | 51.01019 | -0.23541 | 3182 ft | 187 kts | 276° |
| 2026-05-06 18:13 | 51.01092 | -0.25594 | 3027 ft | 186 kts | 276° |
| 2026-05-06 18:13 | 51.01162 | -0.27617 | 3020 ft | 186 kts | 276° |
| 2026-05-06 18:14 | 51.01233 | -0.29674 | 3014 ft | 186 kts | 276° |
| 2026-05-06 18:14 | 51.01302 | -0.31730 | 3015 ft | 187 kts | 276° |
| 2026-05-06 18:14 | 51.01373 | -0.33796 | 3025 ft | 190 kts | 276° |
| 2026-05-06 18:14 | 51.01453 | -0.35908 | 3016 ft | 192 kts | 276° |
| 2026-05-06 18:15 | 51.01530 | -0.38019 | 3014 ft | 192 kts | 276° |
| 2026-05-06 18:15 | 51.01606 | -0.40137 | 3019 ft | 192 kts | 276° |
| 2026-05-06 18:15 | 51.01685 | -0.42244 | 3014 ft | 191 kts | 277° |
| 2026-05-06 18:15 | 51.02001 | -0.44256 | 2976 ft | 186 kts | 297° |
| 2026-05-06 18:16 | 51.02863 | -0.45680 | 2630 ft | 183 kts | 333° |
| 2026-05-06 18:16 | 51.04040 | -0.46392 | 2359 ft | 180 kts | 344° |
| 2026-05-06 18:16 | 51.05238 | -0.46932 | 2085 ft | 178 kts | 345° |
| 2026-05-06 18:16 | 51.06418 | -0.47433 | 2020 ft | 175 kts | 346° |
| 2026-05-06 18:17 | 51.07598 | -0.47898 | 2012 ft | 175 kts | 353° |
| 2026-05-06 18:17 | 51.08800 | -0.47744 | 2019 ft | 175 kts | 17° |
| 2026-05-06 18:17 | 51.09891 | -0.46896 | 2010 ft | 175 kts | 36° |
| 2026-05-06 18:17 | 51.10751 | -0.45523 | 2019 ft | 177 kts | 51° |
| 2026-05-06 18:18 | 51.11339 | -0.43810 | 2034 ft | 176 kts | 66° |
| 2026-05-06 18:18 | 51.11668 | -0.41942 | 2016 ft | 172 kts | 74° |
| 2026-05-06 18:18 | 51.11914 | -0.40144 | 2006 ft | 163 kts | 74° |
| 2026-05-06 18:18 | 51.12148 | -0.38415 | 2000 ft | 151 kts | 74° |
| 2026-05-06 18:19 | 51.12356 | -0.36900 | 1980 ft | 132 kts | 73° |
| 2026-05-06 18:19 | 51.12554 | -0.35487 | 2020 ft | 130 kts | 73° |
| 2026-05-06 18:19 | 51.12750 | -0.34099 | 1984 ft | 131 kts | 73° |
| 2026-05-06 18:19 | 51.12947 | -0.32682 | 1812 ft | 131 kts | 73° |
| 2026-05-06 18:20 | 51.13140 | -0.31265 | 1631 ft | 131 kts | 73° |
| 2026-05-06 18:20 | 51.13333 | -0.29854 | 1442 ft | 131 kts | 75° |
| 2026-05-06 18:20 | 51.13525 | -0.28446 | 1253 ft | 129 kts | 74° |
| 2026-05-06 18:20 | 51.13716 | -0.27057 | 1066 ft | 129 kts | 74° |
| 2026-05-06 18:21 | 51.13907 | -0.25662 | 890 ft | 129 kts | 74° |
| 2026-05-06 18:21 | 51.14097 | -0.24270 | 744 ft | 129 kts | 75° |
| 2026-05-06 18:21 | 51.14289 | -0.22883 | 548 ft | 128 kts | 75° |
| 2026-05-06 18:21 | 51.14478 | -0.21525 | 354 ft | 125 kts | 76° |
| 2026-05-06 18:22 | 51.14657 | -0.20190 | 225 ft | 121 kts | 75° |
| 2026-05-06 18:22 | 51.14813 | -0.19069 | 219 ft | 70 kts | 78° |
| 2026-05-06 18:22 | 51.14848 | -0.18762 | 206 ft | 3 kts | 78° |
| 2026-05-06 18:22 | 51.14872 | -0.18652 | 214 ft | 14 kts | 59° |
| 2026-05-06 18:23 | 51.14932 | -0.18516 | 208 ft | 16 kts | 51° |
| 2026-05-06 18:23 | 51.15001 | -0.18382 | 210 ft | 16 kts | 51° |
| 2026-05-06 18:23 | 51.15071 | -0.18243 | 213 ft | 17 kts | 51° |
| 2026-05-06 18:23 | 51.15145 | -0.18185 | 213 ft | 10 kts | 352° |
| 2026-05-06 18:24 | 51.15167 | -0.18193 | 210 ft | 0 kts | 346° |
| 2026-05-06 18:24 | 51.15168 | -0.18193 | 210 ft | 0 kts | 346° |
| 2026-05-06 18:24 | 51.15169 | -0.18194 | 209 ft | 0 kts | 346° |
| 2026-05-06 18:24 | 51.15170 | -0.18194 | 209 ft | 0 kts | 346° |
| 2026-05-06 18:25 | 51.15194 | -0.18203 | 211 ft | 8 kts | 347° |
| 2026-05-06 18:25 | 51.15250 | -0.18224 | 207 ft | 8 kts | 347° |
| 2026-05-06 18:26 | 51.15309 | -0.18246 | 211 ft | 9 kts | 347° |
| 2026-05-06 18:26 | 51.15371 | -0.18267 | 209 ft | 10 kts | 348° |
| 2026-05-06 18:26 | 51.15438 | -0.18291 | 207 ft | 10 kts | 347° |
| 2026-05-06 18:26 | 51.15507 | -0.18315 | 207 ft | 10 kts | 349° |
| 2026-05-06 18:27 | 51.15578 | -0.18338 | 207 ft | 10 kts | 347° |
| 2026-05-06 18:27 | 51.15640 | -0.18318 | 212 ft | 10 kts | 55° |
| 2026-05-06 18:27 | 51.15660 | -0.18212 | 209 ft | 10 kts | 78° |
| 2026-05-06 18:27 | 51.15675 | -0.18104 | 209 ft | 9 kts | 78° |
| 2026-05-06 18:28 | 51.15690 | -0.18001 | 216 ft | 10 kts | 77° |
| 2026-05-06 18:28 | 51.15703 | -0.17904 | 210 ft | 0 kts | 87° |
| 2026-05-06 18:28 | 51.15700 | -0.17879 | 211 ft | 5 kts | 107° |
| 2026-05-06 18:28 | 51.15679 | -0.17857 | 211 ft | 4 kts | 173° |
| 2026-05-06 18:29 | 51.15653 | -0.17849 | 211 ft | 4 kts | 167° |
| 2026-05-06 18:29 | 51.15648 | -0.17848 | 207 ft | 0 kts | 167° |